sensor_id;sensor_type;location;lat;lon;timestamp;temperature;humidity
16838;DHT22;19510;54.486;9.046;2023-04-24T06:26:12;11.30;99.90
16838;DHT22;19510;54.486;9.046;2023-04-24T06:32:03;11.30;99.90
16838;DHT22;19510;54.486;9.046;2023-04-24T06:41:02;11.30;99.90
16838;DHT22;19510;54.486;9.046;2023-04-24T06:43:31;11.30;99.90
16838;DHT22;19510;54.486;9.046;2023-04-24T06:45:57;11.30;99.90
16838;DHT22;19510;54.486;9.046;2023-04-24T06:48:26;11.30;99.90
16838;DHT22;19510;54.486;9.046;2023-04-24T06:50:52;11.30;99.90
16838;DHT22;19510;54.486;9.046;2023-04-24T06:53:20;11.30;99.90
16838;DHT22;19510;54.486;9.046;2023-04-24T06:55:48;11.30;99.90
16838;DHT22;19510;54.486;9.046;2023-04-24T06:58:14;11.30;99.90
16838;DHT22;19510;54.486;9.046;2023-04-24T07:00:40;11.20;99.90
16838;DHT22;19510;54.486;9.046;2023-04-24T07:03:06;11.20;99.90
16838;DHT22;19510;54.486;9.046;2023-04-24T07:05:32;11.20;99.90
16838;DHT22;19510;54.486;9.046;2023-04-24T07:07:59;11.30;99.90
16838;DHT22;19510;54.486;9.046;2023-04-24T07:10:25;11.30;99.90
16838;DHT22;19510;54.486;9.046;2023-04-24T07:12:54;11.30;99.90
16838;DHT22;19510;54.486;9.046;2023-04-24T07:15:21;11.30;99.90
16838;DHT22;19510;54.486;9.046;2023-04-24T07:17:47;11.30;99.90
16838;DHT22;19510;54.486;9.046;2023-04-24T07:23:35;11.30;99.90
16838;DHT22;19510;54.486;9.046;2023-04-24T07:26:03;11.40;99.90
16838;DHT22;19510;54.486;9.046;2023-04-24T07:28:29;11.40;99.90
16838;DHT22;19510;54.486;9.046;2023-04-24T07:30:57;11.40;99.90
16838;DHT22;19510;54.486;9.046;2023-04-24T07:33:23;11.40;99.90
16838;DHT22;19510;54.486;9.046;2023-04-24T07:35:48;11.40;99.90
16838;DHT22;19510;54.486;9.046;2023-04-24T07:38:14;11.50;99.90
16838;DHT22;19510;54.486;9.046;2023-04-24T07:40:40;11.50;99.90
16838;DHT22;19510;54.486;9.046;2023-04-24T07:43:06;11.50;99.90
16838;DHT22;19510;54.486;9.046;2023-04-24T07:45:31;11.60;99.90
16838;DHT22;19510;54.486;9.046;2023-04-24T07:48:01;11.60;99.90
16838;DHT22;19510;54.486;9.046;2023-04-24T07:50:27;11.60;99.90
16838;DHT22;19510;54.486;9.046;2023-04-24T07:52:52;11.60;99.90
16838;DHT22;19510;54.486;9.046;2023-04-24T07:55:18;11.50;99.90
16838;DHT22;19510;54.486;9.046;2023-04-24T07:57:44;11.40;99.90
16838;DHT22;19510;54.486;9.046;2023-04-24T08:00:10;11.40;99.90
16838;DHT22;19510;54.486;9.046;2023-04-24T08:02:36;11.40;99.90
16838;DHT22;19510;54.486;9.046;2023-04-24T08:05:02;11.40;99.90
16838;DHT22;19510;54.486;9.046;2023-04-24T08:07:29;11.40;99.90
16838;DHT22;19510;54.486;9.046;2023-04-24T08:09:55;11.40;99.90
16838;DHT22;19510;54.486;9.046;2023-04-24T08:12:20;11.40;99.90
16838;DHT22;19510;54.486;9.046;2023-04-24T08:14:46;11.40;99.90
16838;DHT22;19510;54.486;9.046;2023-04-24T08:17:14;11.50;99.90
16838;DHT22;19510;54.486;9.046;2023-04-24T08:19:42;11.50;99.90
16838;DHT22;19510;54.486;9.046;2023-04-24T08:22:13;11.50;99.90
16838;DHT22;19510;54.486;9.046;2023-04-24T08:24:39;11.50;99.90
16838;DHT22;19510;54.486;9.046;2023-04-24T08:27:07;11.50;99.90
16838;DHT22;19510;54.486;9.046;2023-04-24T08:29:33;11.50;99.90
16838;DHT22;19510;54.486;9.046;2023-04-24T08:31:59;11.50;99.90
16838;DHT22;19510;54.486;9.046;2023-04-24T08:34:24;11.50;99.90
16838;DHT22;19510;54.486;9.046;2023-04-24T08:36:50;11.60;99.90
16838;DHT22;19510;54.486;9.046;2023-04-24T08:39:17;11.60;99.90
16838;DHT22;19510;54.486;9.046;2023-04-24T08:41:43;11.60;99.90
16838;DHT22;19510;54.486;9.046;2023-04-24T08:44:11;11.70;99.90
16838;DHT22;19510;54.486;9.046;2023-04-24T08:46:37;11.70;99.90
16838;DHT22;19510;54.486;9.046;2023-04-24T08:49:05;11.70;99.90
16838;DHT22;19510;54.486;9.046;2023-04-24T08:51:34;11.70;99.90
16838;DHT22;19510;54.486;9.046;2023-04-24T08:54:02;11.80;99.90
16838;DHT22;19510;54.486;9.046;2023-04-24T08:56:29;11.80;99.90
16838;DHT22;19510;54.486;9.046;2023-04-24T08:58:57;11.80;99.90
16838;DHT22;19510;54.486;9.046;2023-04-24T09:01:23;11.80;99.90
16838;DHT22;19510;54.486;9.046;2023-04-24T09:03:50;11.80;99.90
16838;DHT22;19510;54.486;9.046;2023-04-24T09:06:19;11.70;99.90
16838;DHT22;19510;54.486;9.046;2023-04-24T09:08:47;11.70;99.90
16838;DHT22;19510;54.486;9.046;2023-04-24T09:11:17;11.60;99.90
16838;DHT22;19510;54.486;9.046;2023-04-24T09:13:45;11.70;99.90
16838;DHT22;19510;54.486;9.046;2023-04-24T09:16:12;11.60;99.90
16838;DHT22;19510;54.486;9.046;2023-04-24T09:18:39;11.60;99.90
16838;DHT22;19510;54.486;9.046;2023-04-24T09:21:09;11.60;99.90
16838;DHT22;19510;54.486;9.046;2023-04-24T09:23:35;11.60;99.90
16838;DHT22;19510;54.486;9.046;2023-04-24T09:26:03;11.60;99.90
16838;DHT22;19510;54.486;9.046;2023-04-24T09:28:40;11.60;99.90
16838;DHT22;19510;54.486;9.046;2023-04-24T09:31:14;11.70;99.90
16838;DHT22;19510;54.486;9.046;2023-04-24T09:33:54;11.70;99.90
16838;DHT22;19510;54.486;9.046;2023-04-24T09:36:27;11.70;99.90
16838;DHT22;19510;54.486;9.046;2023-04-24T09:38:57;11.70;99.90
16838;DHT22;19510;54.486;9.046;2023-04-24T09:41:24;11.80;99.90
16838;DHT22;19510;54.486;9.046;2023-04-24T09:43:49;11.80;99.90
16838;DHT22;19510;54.486;9.046;2023-04-24T09:46:20;11.90;99.90
16838;DHT22;19510;54.486;9.046;2023-04-24T09:48:48;12.00;99.90
16838;DHT22;19510;54.486;9.046;2023-04-24T09:51:14;12.00;99.90
16838;DHT22;19510;54.486;9.046;2023-04-24T09:53:48;12.00;99.90
16838;DHT22;19510;54.486;9.046;2023-04-24T09:56:18;12.10;99.90
16838;DHT22;19510;54.486;9.046;2023-04-24T09:58:46;12.10;99.90
16838;DHT22;19510;54.486;9.046;2023-04-24T10:01:12;12.10;99.90
16838;DHT22;19510;54.486;9.046;2023-04-24T10:03:42;12.10;99.90
16838;DHT22;19510;54.486;9.046;2023-04-24T10:06:12;12.20;99.90
16838;DHT22;19510;54.486;9.046;2023-04-24T10:08:38;12.20;99.90
16838;DHT22;19510;54.486;9.046;2023-04-24T10:11:04;12.20;99.90
16838;DHT22;19510;54.486;9.046;2023-04-24T10:13:30;12.20;99.90
16838;DHT22;19510;54.486;9.046;2023-04-24T10:15:58;12.30;99.90
16838;DHT22;19510;54.486;9.046;2023-04-24T10:18:26;12.30;99.90
16838;DHT22;19510;54.486;9.046;2023-04-24T10:20:53;12.30;99.90
16838;DHT22;19510;54.486;9.046;2023-04-24T10:23:20;12.20;99.90
16838;DHT22;19510;54.486;9.046;2023-04-24T10:25:46;12.20;99.90
16838;DHT22;19510;54.486;9.046;2023-04-24T10:28:12;12.10;99.90
16838;DHT22;19510;54.486;9.046;2023-04-24T10:30:42;12.10;99.90
16838;DHT22;19510;54.486;9.046;2023-04-24T10:33:08;12.10;99.90
16838;DHT22;19510;54.486;9.046;2023-04-24T10:35:38;12.10;99.90
16838;DHT22;19510;54.486;9.046;2023-04-24T10:38:15;12.00;99.90
16838;DHT22;19510;54.486;9.046;2023-04-24T10:40:44;12.00;99.90
16838;DHT22;19510;54.486;9.046;2023-04-24T10:43:10;12.00;99.90
16838;DHT22;19510;54.486;9.046;2023-04-24T10:45:38;12.00;99.90
16838;DHT22;19510;54.486;9.046;2023-04-24T10:48:04;12.00;99.90
16838;DHT22;19510;54.486;9.046;2023-04-24T10:50:50;12.00;99.90
16838;DHT22;19510;54.486;9.046;2023-04-24T10:53:27;12.00;99.90
16838;DHT22;19510;54.486;9.046;2023-04-24T10:58:36;12.10;99.90
16838;DHT22;19510;54.486;9.046;2023-04-24T11:01:05;12.20;99.90
16838;DHT22;19510;54.486;9.046;2023-04-24T11:03:33;12.30;99.90
16838;DHT22;19510;54.486;9.046;2023-04-24T11:06:07;12.30;99.90
16838;DHT22;19510;54.486;9.046;2023-04-24T11:08:42;12.40;99.90
16838;DHT22;19510;54.486;9.046;2023-04-24T11:11:12;12.40;99.90
16838;DHT22;19510;54.486;9.046;2023-04-24T11:22:00;12.40;99.90
16838;DHT22;19510;54.486;9.046;2023-04-24T11:24:39;12.50;99.90
16838;DHT22;19510;54.486;9.046;2023-04-24T11:27:15;12.60;99.90
16838;DHT22;19510;54.486;9.046;2023-04-24T11:30:02;12.40;99.90
16838;DHT22;19510;54.486;9.046;2023-04-24T11:35:14;12.30;99.90
16838;DHT22;19510;54.486;9.046;2023-04-24T11:37:49;12.30;99.90
16838;DHT22;19510;54.486;9.046;2023-04-24T11:40:17;12.20;99.90
16838;DHT22;19510;54.486;9.046;2023-04-24T11:42:46;12.20;99.90
16838;DHT22;19510;54.486;9.046;2023-04-24T11:45:26;12.20;99.90
16838;DHT22;19510;54.486;9.046;2023-04-24T11:47:55;12.20;99.90
16838;DHT22;19510;54.486;9.046;2023-04-24T11:50:23;12.20;99.90
16838;DHT22;19510;54.486;9.046;2023-04-24T11:52:51;12.20;99.90
16838;DHT22;19510;54.486;9.046;2023-04-24T11:57:50;12.10;99.90
16838;DHT22;19510;54.486;9.046;2023-04-24T12:00:23;12.10;99.90
16838;DHT22;19510;54.486;9.046;2023-04-24T12:03:04;11.90;99.90
16838;DHT22;19510;54.486;9.046;2023-04-24T12:05:31;11.90;99.90
16838;DHT22;19510;54.486;9.046;2023-04-24T12:07:59;11.80;99.90
16838;DHT22;19510;54.486;9.046;2023-04-24T12:10:27;11.70;99.90
16838;DHT22;19510;54.486;9.046;2023-04-24T12:12:55;11.70;99.90
16838;DHT22;19510;54.486;9.046;2023-04-24T12:15:22;11.60;99.90
16838;DHT22;19510;54.486;9.046;2023-04-24T12:17:51;11.60;99.90
16838;DHT22;19510;54.486;9.046;2023-04-24T12:20:17;11.60;99.90
16838;DHT22;19510;54.486;9.046;2023-04-24T12:22:56;11.60;99.90
16838;DHT22;19510;54.486;9.046;2023-04-24T12:25:25;11.70;99.90
16838;DHT22;19510;54.486;9.046;2023-04-24T12:28:08;11.80;99.90
16838;DHT22;19510;54.486;9.046;2023-04-24T12:30:43;11.90;99.90
16838;DHT22;19510;54.486;9.046;2023-04-24T12:33:18;12.00;99.90
16838;DHT22;19510;54.486;9.046;2023-04-24T12:35:51;12.10;99.90
16838;DHT22;19510;54.486;9.046;2023-04-24T12:38:22;12.10;99.90
16838;DHT22;19510;54.486;9.046;2023-04-24T12:41:02;12.10;99.90
16838;DHT22;19510;54.486;9.046;2023-04-24T12:43:29;12.10;99.90
16838;DHT22;19510;54.486;9.046;2023-04-24T12:45:57;12.00;99.90
16838;DHT22;19510;54.486;9.046;2023-04-24T12:48:27;12.00;99.90
16838;DHT22;19510;54.486;9.046;2023-04-24T12:50:58;12.00;99.90
16838;DHT22;19510;54.486;9.046;2023-04-24T12:53:27;11.90;99.90
16838;DHT22;19510;54.486;9.046;2023-04-24T12:55:54;11.80;99.90
16838;DHT22;19510;54.486;9.046;2023-04-24T12:58:21;11.80;99.90
16838;DHT22;19510;54.486;9.046;2023-04-24T13:00:47;11.80;99.90
16838;DHT22;19510;54.486;9.046;2023-04-24T13:03:17;11.80;99.90
16838;DHT22;19510;54.486;9.046;2023-04-24T13:05:44;11.80;99.90
16838;DHT22;19510;54.486;9.046;2023-04-24T13:08:10;11.80;99.90
16838;DHT22;19510;54.486;9.046;2023-04-24T13:10:38;11.80;99.90
16838;DHT22;19510;54.486;9.046;2023-04-24T13:13:04;11.80;99.90
16838;DHT22;19510;54.486;9.046;2023-04-24T13:15:30;11.80;99.90
16838;DHT22;19510;54.486;9.046;2023-04-24T13:17:56;11.70;99.90
16838;DHT22;19510;54.486;9.046;2023-04-24T13:20:24;11.80;99.90
16838;DHT22;19510;54.486;9.046;2023-04-24T13:22:50;11.80;99.90
16838;DHT22;19510;54.486;9.046;2023-04-24T13:25:15;11.80;99.90
16838;DHT22;19510;54.486;9.046;2023-04-24T13:27:44;11.90;99.90
16838;DHT22;19510;54.486;9.046;2023-04-24T13:30:13;11.80;99.90
16838;DHT22;19510;54.486;9.046;2023-04-24T13:32:39;11.70;99.90
16838;DHT22;19510;54.486;9.046;2023-04-24T13:35:07;11.70;99.90
16838;DHT22;19510;54.486;9.046;2023-04-24T13:37:33;11.60;99.90
16838;DHT22;19510;54.486;9.046;2023-04-24T13:39:59;11.80;99.90
16838;DHT22;19510;54.486;9.046;2023-04-24T13:42:27;11.80;99.90
16838;DHT22;19510;54.486;9.046;2023-04-24T13:44:53;11.80;99.90
16838;DHT22;19510;54.486;9.046;2023-04-24T13:47:19;11.80;99.90
16838;DHT22;19510;54.486;9.046;2023-04-24T13:49:47;11.80;99.90
16838;DHT22;19510;54.486;9.046;2023-04-24T13:52:15;11.70;99.90
16838;DHT22;19510;54.486;9.046;2023-04-24T13:54:42;11.60;99.90
16838;DHT22;19510;54.486;9.046;2023-04-24T13:57:09;11.60;99.90
16838;DHT22;19510;54.486;9.046;2023-04-24T13:59:36;11.50;99.90
16838;DHT22;19510;54.486;9.046;2023-04-24T14:02:02;11.50;99.90
16838;DHT22;19510;54.486;9.046;2023-04-24T14:04:28;11.50;99.90
16838;DHT22;19510;54.486;9.046;2023-04-24T14:06:53;11.50;99.90
16838;DHT22;19510;54.486;9.046;2023-04-24T14:09:19;11.50;99.90
16838;DHT22;19510;54.486;9.046;2023-04-24T14:11:45;11.40;99.90
16838;DHT22;19510;54.486;9.046;2023-04-24T14:14:11;11.40;99.90
16838;DHT22;19510;54.486;9.046;2023-04-24T14:16:36;11.20;99.90
16838;DHT22;19510;54.486;9.046;2023-04-24T14:19:02;11.20;99.90
16838;DHT22;19510;54.486;9.046;2023-04-24T14:21:33;11.10;99.90
16838;DHT22;19510;54.486;9.046;2023-04-24T14:23:59;11.00;99.90
16838;DHT22;19510;54.486;9.046;2023-04-24T14:26:27;11.00;99.90
16838;DHT22;19510;54.486;9.046;2023-04-24T14:28:53;10.90;99.90
16838;DHT22;19510;54.486;9.046;2023-04-24T14:31:19;10.80;99.90
16838;DHT22;19510;54.486;9.046;2023-04-24T14:33:45;10.80;99.90
16838;DHT22;19510;54.486;9.046;2023-04-24T14:36:11;10.80;99.90
16838;DHT22;19510;54.486;9.046;2023-04-24T14:38:37;10.80;99.90
16838;DHT22;19510;54.486;9.046;2023-04-24T14:41:05;10.80;99.90
16838;DHT22;19510;54.486;9.046;2023-04-24T14:43:35;10.80;99.90
16838;DHT22;19510;54.486;9.046;2023-04-24T14:46:03;10.80;99.90
16838;DHT22;19510;54.486;9.046;2023-04-24T14:48:30;10.70;99.90
16838;DHT22;19510;54.486;9.046;2023-04-24T14:51:00;10.70;99.90
16838;DHT22;19510;54.486;9.046;2023-04-24T14:53:26;10.60;99.90
16838;DHT22;19510;54.486;9.046;2023-04-24T14:55:54;10.50;99.90
16838;DHT22;19510;54.486;9.046;2023-04-24T14:58:20;10.40;99.90
16838;DHT22;19510;54.486;9.046;2023-04-24T15:00:48;10.40;99.90
16838;DHT22;19510;54.486;9.046;2023-04-24T15:03:18;10.30;99.90
16838;DHT22;19510;54.486;9.046;2023-04-24T15:05:44;10.30;99.90
16838;DHT22;19510;54.486;9.046;2023-04-24T15:08:12;10.20;99.90
16838;DHT22;19510;54.486;9.046;2023-04-24T15:10:38;10.20;99.90
16838;DHT22;19510;54.486;9.046;2023-04-24T15:13:04;10.10;99.90
16838;DHT22;19510;54.486;9.046;2023-04-24T15:15:34;10.00;99.90
16838;DHT22;19510;54.486;9.046;2023-04-24T15:24:40;10.00;99.90
16838;DHT22;19510;54.486;9.046;2023-04-24T15:27:09;10.00;99.90
16838;DHT22;19510;54.486;9.046;2023-04-24T15:29:35;9.90;99.90
16838;DHT22;19510;54.486;9.046;2023-04-24T15:32:01;9.90;99.90
16838;DHT22;19510;54.486;9.046;2023-04-24T15:34:27;9.90;99.90
16838;DHT22;19510;54.486;9.046;2023-04-24T15:36:53;9.90;99.90
16838;DHT22;19510;54.486;9.046;2023-04-24T15:39:22;9.90;99.90
16838;DHT22;19510;54.486;9.046;2023-04-24T15:41:49;9.90;99.90
16838;DHT22;19510;54.486;9.046;2023-04-24T15:44:15;9.90;99.90
16838;DHT22;19510;54.486;9.046;2023-04-24T15:46:41;9.80;99.90
16838;DHT22;19510;54.486;9.046;2023-04-24T15:49:07;9.80;99.90
16838;DHT22;19510;54.486;9.046;2023-04-24T15:51:33;9.80;99.90
16838;DHT22;19510;54.486;9.046;2023-04-24T15:53:58;9.80;99.90
16838;DHT22;19510;54.486;9.046;2023-04-24T15:56:24;9.70;99.90
16838;DHT22;19510;54.486;9.046;2023-04-24T15:58:50;9.70;99.90
16838;DHT22;19510;54.486;9.046;2023-04-24T16:01:16;9.70;99.90
16838;DHT22;19510;54.486;9.046;2023-04-24T16:03:41;9.70;99.90
16838;DHT22;19510;54.486;9.046;2023-04-24T16:06:07;9.70;99.90
16838;DHT22;19510;54.486;9.046;2023-04-24T16:08:34;9.60;99.90
16838;DHT22;19510;54.486;9.046;2023-04-24T16:11:00;9.60;99.90
16838;DHT22;19510;54.486;9.046;2023-04-24T16:13:25;9.60;99.90
16838;DHT22;19510;54.486;9.046;2023-04-24T16:15:53;9.60;99.90
16838;DHT22;19510;54.486;9.046;2023-04-24T16:18:19;9.60;99.90
16838;DHT22;19510;54.486;9.046;2023-04-24T16:20:45;9.60;99.90
16838;DHT22;19510;54.486;9.046;2023-04-24T16:23:11;9.50;99.90
16838;DHT22;19510;54.486;9.046;2023-04-24T16:25:39;9.50;99.90
16838;DHT22;19510;54.486;9.046;2023-04-24T16:28:07;9.50;99.90
16838;DHT22;19510;54.486;9.046;2023-04-24T16:30:33;9.50;99.90
16838;DHT22;19510;54.486;9.046;2023-04-24T16:33:03;9.40;99.90
16838;DHT22;19510;54.486;9.046;2023-04-24T16:35:31;9.40;99.90
16838;DHT22;19510;54.486;9.046;2023-04-24T16:37:57;9.50;99.90
16838;DHT22;19510;54.486;9.046;2023-04-24T16:40:25;9.40;99.90
16838;DHT22;19510;54.486;9.046;2023-04-24T16:42:53;9.40;99.90
16838;DHT22;19510;54.486;9.046;2023-04-24T16:45:19;9.40;99.90
16838;DHT22;19510;54.486;9.046;2023-04-24T16:47:45;9.40;99.90
16838;DHT22;19510;54.486;9.046;2023-04-24T16:50:13;9.40;99.90
16838;DHT22;19510;54.486;9.046;2023-04-24T16:52:38;9.40;99.90
16838;DHT22;19510;54.486;9.046;2023-04-24T16:55:05;9.40;99.90
16838;DHT22;19510;54.486;9.046;2023-04-24T16:57:31;9.40;99.90
16838;DHT22;19510;54.486;9.046;2023-04-24T16:59:56;9.40;99.90
16838;DHT22;19510;54.486;9.046;2023-04-24T17:02:24;9.40;99.90
16838;DHT22;19510;54.486;9.046;2023-04-24T17:04:50;9.40;99.90
16838;DHT22;19510;54.486;9.046;2023-04-24T17:07:22;9.40;99.90
16838;DHT22;19510;54.486;9.046;2023-04-24T17:09:47;9.40;99.90
16838;DHT22;19510;54.486;9.046;2023-04-24T17:12:16;9.50;99.90
16838;DHT22;19510;54.486;9.046;2023-04-24T17:14:41;9.40;99.90
16838;DHT22;19510;54.486;9.046;2023-04-24T17:17:07;9.40;99.90
16838;DHT22;19510;54.486;9.046;2023-04-24T17:19:33;9.40;99.90
16838;DHT22;19510;54.486;9.046;2023-04-24T17:22:01;9.40;99.90
16838;DHT22;19510;54.486;9.046;2023-04-24T17:24:31;9.40;99.90
16838;DHT22;19510;54.486;9.046;2023-04-24T17:26:59;9.40;99.90
16838;DHT22;19510;54.486;9.046;2023-04-24T17:29:25;9.30;99.90
16838;DHT22;19510;54.486;9.046;2023-04-24T17:31:51;9.30;99.90
16838;DHT22;19510;54.486;9.046;2023-04-24T17:34:16;9.30;99.90
16838;DHT22;19510;54.486;9.046;2023-04-24T17:36:42;9.20;99.90
16838;DHT22;19510;54.486;9.046;2023-04-24T17:39:08;9.30;99.90
16838;DHT22;19510;54.486;9.046;2023-04-24T17:41:34;9.30;99.90
16838;DHT22;19510;54.486;9.046;2023-04-24T17:44:00;9.40;99.90
16838;DHT22;19510;54.486;9.046;2023-04-24T17:46:28;9.30;99.90
16838;DHT22;19510;54.486;9.046;2023-04-24T17:48:54;9.30;99.90
16838;DHT22;19510;54.486;9.046;2023-04-24T17:51:20;9.40;99.90
16838;DHT22;19510;54.486;9.046;2023-04-24T17:53:45;9.30;99.90
16838;DHT22;19510;54.486;9.046;2023-04-24T17:56:13;9.40;99.90
16838;DHT22;19510;54.486;9.046;2023-04-24T17:58:46;9.30;99.90
16838;DHT22;19510;54.486;9.046;2023-04-24T18:01:15;9.30;99.90
16838;DHT22;19510;54.486;9.046;2023-04-24T18:03:43;9.30;99.90
16838;DHT22;19510;54.486;9.046;2023-04-24T18:06:09;9.40;99.90
16838;DHT22;19510;54.486;9.046;2023-04-24T18:08:35;9.40;99.90
16838;DHT22;19510;54.486;9.046;2023-04-24T18:11:01;9.30;99.90
16838;DHT22;19510;54.486;9.046;2023-04-24T18:13:27;9.30;99.90
16838;DHT22;19510;54.486;9.046;2023-04-24T18:15:53;9.40;99.90
16838;DHT22;19510;54.486;9.046;2023-04-24T18:18:21;9.40;99.90
16838;DHT22;19510;54.486;9.046;2023-04-24T18:20:47;9.40;99.90
16838;DHT22;19510;54.486;9.046;2023-04-24T18:23:12;9.40;99.90
16838;DHT22;19510;54.486;9.046;2023-04-24T18:25:40;9.40;99.90
16838;DHT22;19510;54.486;9.046;2023-04-24T18:28:08;9.40;99.90
16838;DHT22;19510;54.486;9.046;2023-04-24T18:30:36;9.50;99.90
16838;DHT22;19510;54.486;9.046;2023-04-24T18:33:02;9.50;99.90
16838;DHT22;19510;54.486;9.046;2023-04-24T18:35:33;9.50;99.90
16838;DHT22;19510;54.486;9.046;2023-04-24T18:37:59;9.50;99.90
16838;DHT22;19510;54.486;9.046;2023-04-24T18:40:25;9.50;99.90
16838;DHT22;19510;54.486;9.046;2023-04-24T18:42:51;9.50;99.90
16838;DHT22;19510;54.486;9.046;2023-04-24T18:45:17;9.50;99.90
16838;DHT22;19510;54.486;9.046;2023-04-24T18:47:47;9.60;99.90
16838;DHT22;19510;54.486;9.046;2023-04-24T18:50:15;9.50;99.90
16838;DHT22;19510;54.486;9.046;2023-04-24T18:52:41;9.50;99.90
16838;DHT22;19510;54.486;9.046;2023-04-24T18:55:06;9.50;99.90
16838;DHT22;19510;54.486;9.046;2023-04-24T18:57:34;9.50;99.90
16838;DHT22;19510;54.486;9.046;2023-04-24T19:00:00;9.40;99.90
16838;DHT22;19510;54.486;9.046;2023-04-24T19:02:25;9.40;99.90
16838;DHT22;19510;54.486;9.046;2023-04-24T19:04:53;9.40;99.90
16838;DHT22;19510;54.486;9.046;2023-04-24T19:07:19;9.40;99.90
16838;DHT22;19510;54.486;9.046;2023-04-24T19:09:45;9.40;99.90
16838;DHT22;19510;54.486;9.046;2023-04-24T19:12:11;9.40;99.90
16838;DHT22;19510;54.486;9.046;2023-04-24T19:14:37;9.40;99.90
16838;DHT22;19510;54.486;9.046;2023-04-24T19:17:02;9.40;99.90
16838;DHT22;19510;54.486;9.046;2023-04-24T19:19:28;9.30;99.90
16838;DHT22;19510;54.486;9.046;2023-04-24T19:21:56;9.40;99.90
16838;DHT22;19510;54.486;9.046;2023-04-24T19:24:24;9.40;99.90
16838;DHT22;19510;54.486;9.046;2023-04-24T19:26:53;9.30;99.90
16838;DHT22;19510;54.486;9.046;2023-04-24T19:29:19;9.30;99.90
16838;DHT22;19510;54.486;9.046;2023-04-24T19:31:44;9.30;99.90
16838;DHT22;19510;54.486;9.046;2023-04-24T19:34:13;9.30;99.90
16838;DHT22;19510;54.486;9.046;2023-04-24T19:36:39;9.30;99.90
16838;DHT22;19510;54.486;9.046;2023-04-24T19:39:04;9.30;99.90
16838;DHT22;19510;54.486;9.046;2023-04-24T19:41:32;9.20;99.90
16838;DHT22;19510;54.486;9.046;2023-04-24T19:43:58;9.20;99.90
16838;DHT22;19510;54.486;9.046;2023-04-24T19:46:26;9.20;99.90
16838;DHT22;19510;54.486;9.046;2023-04-24T19:48:52;9.20;99.90
16838;DHT22;19510;54.486;9.046;2023-04-24T19:51:18;9.20;99.90
16838;DHT22;19510;54.486;9.046;2023-04-24T19:53:44;9.20;99.90
16838;DHT22;19510;54.486;9.046;2023-04-24T19:56:13;9.10;99.90
16838;DHT22;19510;54.486;9.046;2023-04-24T19:58:39;9.20;99.90
16838;DHT22;19510;54.486;9.046;2023-04-24T20:01:05;9.20;99.90
16838;DHT22;19510;54.486;9.046;2023-04-24T20:03:31;9.10;99.90
16838;DHT22;19510;54.486;9.046;2023-04-24T20:05:56;9.10;99.90
16838;DHT22;19510;54.486;9.046;2023-04-24T20:08:26;9.10;99.90
16838;DHT22;19510;54.486;9.046;2023-04-24T20:10:52;9.00;99.90
16838;DHT22;19510;54.486;9.046;2023-04-24T20:13:21;9.00;99.90
16838;DHT22;19510;54.486;9.046;2023-04-24T20:15:46;9.00;99.90
16838;DHT22;19510;54.486;9.046;2023-04-24T20:18:12;9.10;99.90
16838;DHT22;19510;54.486;9.046;2023-04-24T20:20:40;9.00;99.90
16838;DHT22;19510;54.486;9.046;2023-04-24T20:23:08;9.00;99.90
16838;DHT22;19510;54.486;9.046;2023-04-24T20:25:36;9.00;99.90
16838;DHT22;19510;54.486;9.046;2023-04-24T20:28:02;9.00;99.90
16838;DHT22;19510;54.486;9.046;2023-04-24T20:30:28;9.00;99.90
16838;DHT22;19510;54.486;9.046;2023-04-24T20:32:55;9.00;99.90
16838;DHT22;19510;54.486;9.046;2023-04-24T20:35:21;9.00;99.90
16838;DHT22;19510;54.486;9.046;2023-04-24T20:37:47;9.00;99.90
16838;DHT22;19510;54.486;9.046;2023-04-24T20:40:13;8.90;99.90
16838;DHT22;19510;54.486;9.046;2023-04-24T20:42:41;8.90;99.90
16838;DHT22;19510;54.486;9.046;2023-04-24T20:45:07;9.00;99.90
16838;DHT22;19510;54.486;9.046;2023-04-24T20:47:33;8.90;99.90
16838;DHT22;19510;54.486;9.046;2023-04-24T20:49:59;8.90;99.90
16838;DHT22;19510;54.486;9.046;2023-04-24T20:52:30;8.90;99.90
16838;DHT22;19510;54.486;9.046;2023-04-24T20:54:56;8.90;99.90
16838;DHT22;19510;54.486;9.046;2023-04-24T20:57:21;8.90;99.90
16838;DHT22;19510;54.486;9.046;2023-04-24T20:59:47;8.90;99.90
16838;DHT22;19510;54.486;9.046;2023-04-24T21:02:13;8.90;99.90
16838;DHT22;19510;54.486;9.046;2023-04-24T21:04:41;8.80;99.90
16838;DHT22;19510;54.486;9.046;2023-04-24T21:07:07;8.80;99.90
16838;DHT22;19510;54.486;9.046;2023-04-24T21:09:34;8.70;99.90
16838;DHT22;19510;54.486;9.046;2023-04-24T21:12:00;8.70;99.90
16838;DHT22;19510;54.486;9.046;2023-04-24T21:14:27;8.70;99.90
16838;DHT22;19510;54.486;9.046;2023-04-24T21:16:52;8.80;99.90
16838;DHT22;19510;54.486;9.046;2023-04-24T21:19:24;8.70;99.90
16838;DHT22;19510;54.486;9.046;2023-04-24T21:21:50;8.70;99.90
16838;DHT22;19510;54.486;9.046;2023-04-24T21:24:15;8.70;99.90
16838;DHT22;19510;54.486;9.046;2023-04-24T21:26:44;8.60;99.90
16838;DHT22;19510;54.486;9.046;2023-04-24T21:29:13;8.50;99.90
16838;DHT22;19510;54.486;9.046;2023-04-24T21:31:39;8.50;99.90
16838;DHT22;19510;54.486;9.046;2023-04-24T21:34:04;8.40;99.90
16838;DHT22;19510;54.486;9.046;2023-04-24T21:36:30;8.40;99.90
16838;DHT22;19510;54.486;9.046;2023-04-24T21:38:58;8.40;99.90
16838;DHT22;19510;54.486;9.046;2023-04-24T21:41:25;8.40;99.90
16838;DHT22;19510;54.486;9.046;2023-04-24T21:43:51;8.30;99.90
16838;DHT22;19510;54.486;9.046;2023-04-24T21:46:17;8.30;99.90
16838;DHT22;19510;54.486;9.046;2023-04-24T21:48:42;8.30;99.90
16838;DHT22;19510;54.486;9.046;2023-04-24T21:51:09;8.30;99.90
16838;DHT22;19510;54.486;9.046;2023-04-24T21:53:35;8.30;99.90
16838;DHT22;19510;54.486;9.046;2023-04-24T21:56:01;8.30;99.90
16838;DHT22;19510;54.486;9.046;2023-04-24T21:58:26;8.30;99.90
16838;DHT22;19510;54.486;9.046;2023-04-24T22:00:52;8.30;99.90
16838;DHT22;19510;54.486;9.046;2023-04-24T22:03:18;8.30;99.90
16838;DHT22;19510;54.486;9.046;2023-04-24T22:05:44;8.30;99.90
16838;DHT22;19510;54.486;9.046;2023-04-24T22:08:12;8.40;99.90
16838;DHT22;19510;54.486;9.046;2023-04-24T22:10:41;8.30;99.90
16838;DHT22;19510;54.486;9.046;2023-04-24T22:13:06;8.30;99.90
16838;DHT22;19510;54.486;9.046;2023-04-24T22:15:32;8.30;99.90
16838;DHT22;19510;54.486;9.046;2023-04-24T22:17:58;8.40;99.90
16838;DHT22;19510;54.486;9.046;2023-04-24T22:20:25;8.30;99.90
16838;DHT22;19510;54.486;9.046;2023-04-24T22:22:51;8.30;99.90
16838;DHT22;19510;54.486;9.046;2023-04-24T22:25:17;8.20;99.90
16838;DHT22;19510;54.486;9.046;2023-04-24T22:27:43;8.20;99.90
16838;DHT22;19510;54.486;9.046;2023-04-24T22:30:13;8.20;99.90
16838;DHT22;19510;54.486;9.046;2023-04-24T22:32:38;8.20;99.90
16838;DHT22;19510;54.486;9.046;2023-04-24T22:35:04;8.20;99.90
16838;DHT22;19510;54.486;9.046;2023-04-24T22:37:34;8.20;99.90
16838;DHT22;19510;54.486;9.046;2023-04-24T22:40:01;8.20;99.90